createdAt,value
2023-05-04T00:00:12.895Z,13.00
2023-05-04T00:02:43.749Z,13.10
2023-05-04T00:05:14.636Z,13.20
2023-05-04T00:07:45.355Z,13.10
2023-05-04T00:10:15.958Z,13.20
2023-05-04T00:12:47.209Z,13.30
2023-05-04T00:15:17.887Z,13.20
2023-05-04T00:17:48.575Z,13.10
2023-05-04T00:20:19.653Z,13.00
2023-05-04T00:22:50.330Z,12.90
2023-05-04T00:25:21.187Z,12.90
2023-05-04T00:27:51.911Z,12.80
2023-05-04T00:30:22.709Z,12.80
2023-05-04T00:32:53.521Z,12.70
2023-05-04T00:35:25.328Z,12.70
2023-05-04T00:37:56.045Z,12.70
2023-05-04T00:40:27.064Z,12.70
2023-05-04T00:42:57.751Z,12.70
2023-05-04T00:45:28.881Z,12.70
2023-05-04T00:47:59.691Z,12.70
2023-05-04T00:50:31.742Z,12.70
2023-05-04T00:53:05.644Z,12.60
2023-05-04T00:55:37.955Z,12.60
2023-05-04T00:58:09.440Z,12.60
2023-05-04T01:00:40.108Z,12.60
2023-05-04T01:03:12.277Z,12.60
2023-05-04T01:08:25.769Z,12.60
2023-05-04T01:10:59.344Z,12.60
2023-05-04T01:13:32.568Z,12.80
2023-05-04T01:16:04.116Z,12.60
2023-05-04T01:18:34.855Z,12.50
2023-05-04T01:21:06.695Z,12.40
2023-05-04T01:23:37.240Z,12.40
2023-05-04T01:26:11.299Z,12.40
2023-05-04T01:28:45.081Z,12.40
2023-05-04T01:31:18.627Z,12.40
2023-05-04T01:33:50.762Z,12.40
2023-05-04T01:36:22.993Z,12.30
2023-05-04T01:38:56.078Z,12.30
2023-05-04T01:41:27.277Z,12.20
2023-05-04T01:43:58.024Z,12.30
2023-05-04T01:46:28.698Z,12.30
2023-05-04T01:48:59.418Z,12.30
2023-05-04T01:51:30.062Z,12.30
2023-05-04T01:54:00.734Z,12.20
2023-05-04T01:56:31.775Z,12.20
2023-05-04T01:59:02.451Z,12.20
2023-05-04T02:01:33.265Z,12.10
2023-05-04T02:04:04.114Z,12.10
2023-05-04T02:06:34.896Z,12.10
2023-05-04T02:09:05.846Z,12.10
2023-05-04T02:11:36.561Z,12.00
2023-05-04T02:14:07.216Z,12.00
2023-05-04T02:16:38.033Z,12.00
2023-05-04T02:19:09.047Z,11.90
2023-05-04T02:21:40.639Z,12.10
2023-05-04T02:24:11.333Z,12.00
2023-05-04T02:26:41.972Z,12.10
2023-05-04T02:29:12.871Z,12.00
2023-05-04T02:31:44.661Z,12.10
2023-05-04T02:34:15.523Z,12.10
2023-05-04T02:36:47.120Z,12.10
2023-05-04T02:39:18.031Z,12.00
2023-05-04T02:41:48.822Z,12.00
2023-05-04T02:44:19.438Z,11.90
2023-05-04T02:46:50.032Z,12.00
2023-05-04T02:49:20.707Z,11.90
2023-05-04T02:51:51.803Z,11.90
2023-05-04T02:54:22.416Z,11.90
2023-05-04T02:56:52.971Z,11.80
2023-05-04T02:59:23.610Z,11.30
2023-05-04T03:01:54.341Z,11.00
2023-05-04T03:04:25.214Z,10.80
2023-05-04T03:06:55.904Z,10.80
2023-05-04T03:09:26.612Z,10.80
2023-05-04T03:11:57.693Z,11.00
2023-05-04T03:14:28.574Z,11.10
2023-05-04T03:16:59.223Z,11.30
2023-05-04T03:19:29.945Z,11.30
2023-05-04T03:22:00.608Z,11.30
2023-05-04T03:24:31.321Z,11.30
2023-05-04T03:27:01.921Z,11.40
2023-05-04T03:29:32.595Z,10.90
2023-05-04T03:32:03.527Z,10.60
2023-05-04T03:34:34.288Z,10.30
2023-05-04T03:37:05.086Z,10.00
2023-05-04T03:39:35.697Z,9.90
2023-05-04T03:42:06.489Z,9.70
2023-05-04T03:44:37.075Z,9.90
2023-05-04T03:47:08.706Z,9.90
2023-05-04T03:49:39.354Z,9.80
2023-05-04T03:52:10.006Z,10.00
2023-05-04T03:54:40.773Z,10.20
2023-05-04T03:57:11.414Z,10.20
2023-05-04T03:59:42.118Z,10.20
2023-05-04T04:02:13.497Z,10.20
2023-05-04T04:04:44.250Z,10.30
2023-05-04T04:07:15.057Z,10.40
2023-05-04T04:09:46.557Z,10.30
2023-05-04T04:12:19.807Z,10.30
2023-05-04T04:14:52.261Z,10.40
2023-05-04T04:17:22.858Z,10.30
2023-05-04T04:19:53.555Z,10.20
2023-05-04T04:22:24.203Z,10.10
2023-05-04T04:24:54.798Z,10.00
2023-05-04T04:27:25.719Z,10.00
2023-05-04T04:29:56.366Z,9.90
2023-05-04T04:32:27.357Z,10.00
2023-05-04T04:34:58.032Z,10.10
2023-05-04T04:37:28.684Z,10.10
2023-05-04T04:39:59.430Z,10.00
2023-05-04T04:42:30.222Z,10.00
2023-05-04T04:45:00.955Z,9.90
2023-05-04T04:47:31.695Z,9.80
2023-05-04T04:50:03.927Z,9.90
2023-05-04T04:52:35.940Z,9.90
2023-05-04T04:55:08.548Z,9.90
2023-05-04T04:57:39.458Z,9.90
2023-05-04T05:00:14.607Z,9.90
2023-05-04T05:02:45.338Z,9.90
2023-05-04T05:05:16.188Z,10.00
2023-05-04T05:07:46.879Z,9.90
2023-05-04T05:10:17.951Z,9.90
2023-05-04T05:12:48.718Z,9.80
2023-05-04T05:15:19.558Z,9.90
2023-05-04T05:17:50.284Z,10.00
2023-05-04T05:20:21.619Z,10.10
2023-05-04T05:22:52.574Z,10.20
2023-05-04T05:25:23.497Z,10.30
2023-05-04T05:27:54.162Z,10.40
2023-05-04T05:30:25.006Z,10.40
2023-05-04T05:32:55.795Z,10.50
2023-05-04T05:35:26.502Z,10.70
2023-05-04T05:37:57.771Z,10.70
2023-05-04T05:40:28.429Z,10.80
2023-05-04T05:42:59.178Z,11.00
2023-05-04T05:45:30.192Z,11.30
2023-05-04T05:48:00.885Z,11.50
2023-05-04T05:50:31.546Z,11.50
2023-05-04T05:53:02.363Z,11.70
2023-05-04T05:55:32.930Z,12.00
2023-05-04T05:58:03.603Z,12.10
2023-05-04T06:00:34.258Z,12.20
2023-05-04T06:03:05.019Z,12.30
2023-05-04T06:05:37.112Z,12.50
2023-05-04T06:08:08.056Z,12.60
2023-05-04T06:10:38.837Z,12.80
2023-05-04T06:13:09.633Z,13.00
2023-05-04T06:15:40.402Z,13.10
2023-05-04T06:18:11.065Z,13.10
2023-05-04T06:20:41.848Z,13.30
2023-05-04T06:23:14.067Z,13.30
2023-05-04T06:25:44.695Z,13.50
2023-05-04T06:28:15.384Z,13.60
2023-05-04T06:30:45.983Z,13.70
2023-05-04T06:33:16.612Z,13.80
2023-05-04T06:35:47.229Z,13.70
2023-05-04T06:38:17.815Z,13.90
2023-05-04T06:40:48.569Z,14.00
2023-05-04T06:43:19.310Z,14.10
2023-05-04T06:45:50.351Z,14.20
2023-05-04T06:48:21.033Z,14.20
2023-05-04T06:50:51.761Z,14.10
2023-05-04T06:53:22.582Z,14.40
2023-05-04T06:55:53.544Z,14.40
2023-05-04T06:58:24.363Z,14.50
2023-05-04T07:00:55.200Z,14.70
2023-05-04T07:03:26.176Z,14.90
2023-05-04T07:05:56.819Z,15.00
2023-05-04T07:08:27.547Z,15.30
2023-05-04T07:10:58.489Z,15.30
2023-05-04T07:13:29.156Z,15.40
2023-05-04T07:15:59.921Z,15.30
2023-05-04T07:18:30.618Z,15.40
2023-05-04T07:21:15.967Z,15.50
2023-05-04T07:23:34.196Z,15.50
2023-05-04T07:26:05.382Z,15.60
2023-05-04T07:28:36.118Z,15.70
2023-05-04T07:31:07.223Z,15.70
2023-05-04T07:33:38.357Z,15.70
2023-05-04T07:36:09.606Z,15.70
2023-05-04T07:38:40.356Z,15.80
2023-05-04T07:41:11.396Z,16.10
2023-05-04T07:43:42.064Z,16.40
2023-05-04T07:46:12.664Z,16.50
2023-05-04T07:48:43.390Z,16.50
2023-05-04T07:51:16.398Z,16.60
2023-05-04T07:53:47.076Z,16.70
2023-05-04T07:56:17.734Z,16.80
2023-05-04T07:58:48.496Z,16.80
2023-05-04T08:01:19.287Z,16.90
2023-05-04T08:03:49.895Z,16.80
2023-05-04T08:06:20.627Z,16.90
2023-05-04T08:08:52.923Z,17.20
2023-05-04T08:11:24.105Z,17.40
2023-05-04T08:13:54.809Z,17.40
2023-05-04T08:16:25.566Z,17.20
2023-05-04T08:18:56.402Z,17.40
2023-05-04T08:21:27.290Z,17.40
2023-05-04T08:23:58.064Z,17.60
2023-05-04T08:26:28.933Z,17.90
2023-05-04T08:29:07.706Z,17.80
2023-05-04T08:31:39.250Z,17.90
2023-05-04T08:34:09.841Z,18.10
2023-05-04T08:36:40.629Z,18.10
2023-05-04T08:39:12.120Z,18.50
2023-05-04T08:41:43.621Z,18.70
2023-05-04T08:44:15.149Z,18.50
2023-05-04T08:46:51.036Z,18.40
2023-05-04T08:49:21.977Z,18.50
2023-05-04T08:51:53.285Z,18.60
2023-05-04T08:54:24.351Z,18.60
2023-05-04T08:56:57.062Z,18.90
2023-05-04T08:59:29.176Z,18.80
2023-05-04T09:02:01.888Z,18.70
2023-05-04T09:04:33.260Z,18.90
2023-05-04T09:07:04.382Z,19.00
2023-05-04T09:09:35.702Z,19.40
2023-05-04T09:12:06.962Z,19.50
2023-05-04T09:14:38.550Z,19.80
2023-05-04T09:17:18.112Z,19.90
2023-05-04T09:19:50.237Z,19.90
2023-05-04T09:22:21.556Z,20.10
2023-05-04T09:24:52.173Z,20.10
2023-05-04T09:27:22.825Z,20.00
2023-05-04T09:29:58.014Z,20.20
2023-05-04T09:32:30.172Z,20.40
2023-05-04T09:35:00.873Z,20.50
2023-05-04T09:37:31.718Z,20.60
2023-05-04T09:40:02.357Z,20.70
2023-05-04T09:42:33.163Z,20.90
2023-05-04T09:45:05.550Z,21.00
2023-05-04T09:47:41.462Z,21.10
2023-05-04T09:50:20.075Z,21.10
2023-05-04T09:52:50.645Z,21.40
2023-05-04T09:55:23.231Z,21.40
2023-05-04T09:57:53.924Z,21.70
2023-05-04T10:00:25.183Z,22.00
2023-05-04T10:02:57.216Z,22.20
2023-05-04T10:05:28.882Z,22.40
2023-05-04T10:08:01.682Z,22.40
2023-05-04T10:10:32.812Z,22.40
2023-05-04T10:13:03.579Z,22.60
2023-05-04T10:15:35.167Z,22.90
2023-05-04T10:18:14.947Z,22.70
2023-05-04T10:21:00.614Z,22.80
2023-05-04T10:23:45.154Z,23.20
2023-05-04T10:29:08.952Z,23.80
2023-05-04T10:31:44.392Z,23.90
2023-05-04T10:34:16.698Z,24.20
2023-05-04T10:36:48.864Z,24.30
2023-05-04T10:39:24.256Z,24.20
2023-05-04T10:42:05.355Z,24.30
2023-05-04T10:44:37.638Z,24.80
2023-05-04T10:47:09.964Z,25.00
2023-05-04T10:49:41.014Z,24.80
2023-05-04T10:52:16.441Z,24.70
2023-05-04T10:54:47.258Z,24.80
2023-05-04T10:57:17.927Z,25.30
2023-05-04T10:59:58.954Z,25.40
2023-05-04T11:02:32.477Z,25.40
2023-05-04T11:05:05.254Z,25.00
2023-05-04T11:07:38.351Z,25.10
2023-05-04T11:10:12.950Z,25.60
2023-05-04T11:12:45.359Z,25.90
2023-05-04T11:15:16.210Z,25.80
2023-05-04T11:17:51.101Z,25.80
2023-05-04T11:20:26.512Z,26.00
2023-05-04T11:22:57.489Z,25.80
2023-05-04T11:25:33.543Z,25.90
2023-05-04T11:28:04.985Z,26.30
2023-05-04T11:30:36.251Z,26.50
2023-05-04T11:33:12.891Z,26.70
2023-05-04T11:35:45.393Z,26.70
2023-05-04T11:38:21.082Z,26.20
2023-05-04T11:40:51.861Z,26.10
2023-05-04T11:43:23.416Z,26.10
2023-05-04T11:45:56.084Z,26.10
2023-05-04T11:48:27.114Z,25.70
2023-05-04T11:50:58.278Z,26.00
2023-05-04T11:53:29.227Z,26.20
2023-05-04T11:56:06.323Z,26.40
2023-05-04T11:58:37.698Z,26.60
2023-05-04T12:01:08.694Z,26.80
2023-05-04T12:03:53.353Z,27.00
2023-05-04T12:06:13.291Z,26.80
2023-05-04T12:08:43.908Z,26.60
2023-05-04T12:11:17.166Z,26.90
2023-05-04T12:13:49.290Z,27.00
2023-05-04T12:16:21.258Z,27.00
2023-05-04T12:18:53.758Z,27.20
2023-05-04T12:21:24.409Z,27.00
2023-05-04T12:23:56.522Z,27.10
2023-05-04T12:26:27.503Z,27.20
2023-05-04T12:31:28.801Z,27.30
2023-05-04T12:33:59.425Z,27.40
2023-05-04T12:36:30.331Z,27.50
2023-05-04T12:39:01.339Z,27.60
2023-05-04T12:41:32.790Z,27.60
2023-05-04T12:44:03.430Z,27.50
2023-05-04T12:46:34.194Z,27.50
2023-05-04T12:49:04.852Z,27.40
2023-05-04T12:51:35.737Z,26.80
2023-05-04T12:54:06.954Z,26.70
2023-05-04T12:56:37.601Z,25.80
2023-05-04T12:59:08.328Z,25.80
2023-05-04T13:01:40.398Z,26.00
2023-05-04T13:04:11.069Z,26.60
2023-05-04T13:06:42.633Z,27.10
2023-05-04T13:09:13.377Z,27.10
2023-05-04T13:11:44.808Z,27.30
2023-05-04T13:14:15.956Z,27.40
2023-05-04T13:16:46.570Z,27.80
2023-05-04T13:19:17.269Z,28.10
2023-05-04T13:21:48.042Z,28.30
2023-05-04T13:24:18.688Z,28.40
2023-05-04T13:26:49.416Z,28.80
2023-05-04T13:29:20.100Z,28.50
2023-05-04T13:31:51.428Z,27.90
2023-05-04T13:34:22.012Z,28.00
2023-05-04T13:36:52.691Z,27.80
2023-05-04T13:39:24.079Z,28.20
2023-05-04T13:41:54.865Z,28.00
2023-05-04T13:44:25.519Z,28.60
2023-05-04T13:46:56.307Z,28.60
2023-05-04T13:49:27.435Z,27.70
2023-05-04T13:52:00.165Z,27.40
2023-05-04T13:54:30.847Z,27.40
2023-05-04T13:57:01.534Z,27.60
2023-05-04T13:59:32.557Z,27.80
2023-05-04T14:02:03.407Z,28.30
2023-05-04T14:04:35.329Z,28.00
2023-05-04T14:07:08.293Z,27.70
2023-05-04T14:09:38.965Z,27.70
2023-05-04T14:12:10.781Z,28.00
2023-05-04T14:14:41.470Z,28.10
2023-05-04T14:17:12.818Z,28.50
2023-05-04T14:19:43.461Z,28.20
2023-05-04T14:22:14.234Z,28.50
2023-05-04T14:24:44.855Z,28.80
2023-05-04T14:27:15.593Z,28.70
2023-05-04T14:29:47.844Z,28.10
2023-05-04T14:32:19.531Z,28.40
2023-05-04T14:34:50.964Z,28.00
2023-05-04T14:37:21.533Z,28.10
2023-05-04T14:39:52.158Z,28.00
2023-05-04T14:42:22.836Z,28.70
2023-05-04T14:44:53.955Z,29.00
2023-05-04T14:47:24.559Z,28.30
2023-05-04T14:49:55.336Z,28.50
2023-05-04T14:52:26.354Z,28.90
2023-05-04T14:54:57.013Z,29.20
2023-05-04T14:57:27.731Z,29.20
2023-05-04T14:59:58.405Z,29.40
2023-05-04T15:02:29.475Z,30.00
2023-05-04T15:05:00.188Z,29.20
2023-05-04T15:07:31.418Z,28.80
2023-05-04T15:10:02.268Z,28.90
2023-05-04T15:12:33.114Z,28.30
2023-05-04T15:15:03.840Z,28.80
2023-05-04T15:17:34.665Z,28.60
2023-05-04T15:20:06.260Z,28.80
2023-05-04T15:22:38.217Z,28.80
2023-05-04T15:25:09.769Z,28.80
2023-05-04T15:27:41.039Z,29.00
2023-05-04T15:30:13.348Z,29.10
2023-05-04T15:32:44.151Z,29.30
2023-05-04T15:35:15.021Z,28.60
2023-05-04T15:37:45.761Z,28.60
2023-05-04T15:40:17.020Z,28.10
2023-05-04T15:42:47.852Z,27.90
2023-05-04T15:45:18.951Z,27.20
2023-05-04T15:47:49.902Z,27.50
2023-05-04T15:50:20.867Z,27.30
2023-05-04T15:52:51.632Z,28.00
2023-05-04T15:55:25.222Z,27.80
2023-05-04T15:57:54.712Z,27.30
2023-05-04T16:00:25.601Z,26.90
2023-05-04T16:02:56.908Z,26.10
2023-05-04T16:05:27.742Z,25.90
2023-05-04T16:07:58.898Z,25.10
2023-05-04T16:10:30.011Z,24.70
2023-05-04T16:13:02.623Z,24.60
2023-05-04T16:15:33.393Z,24.30
2023-05-04T16:18:04.068Z,24.00
2023-05-04T16:20:34.778Z,23.90
2023-05-04T16:23:06.193Z,23.50
2023-05-04T16:25:36.878Z,23.40
2023-05-04T16:28:07.836Z,23.10
2023-05-04T16:30:38.825Z,23.10
2023-05-04T16:33:09.866Z,23.00
2023-05-04T16:35:41.000Z,23.00
2023-05-04T16:38:13.796Z,22.90
2023-05-04T16:40:45.152Z,22.80
2023-05-04T16:43:15.876Z,22.70
2023-05-04T16:45:47.997Z,22.40
2023-05-04T16:48:18.995Z,22.40
2023-05-04T16:50:49.713Z,22.30
2023-05-04T16:53:21.257Z,22.30
2023-05-04T16:55:52.479Z,22.20
2023-05-04T16:58:23.215Z,22.10
2023-05-04T17:00:53.852Z,22.20
2023-05-04T17:03:24.572Z,22.10
2023-05-04T17:05:55.531Z,22.00
2023-05-04T17:08:26.310Z,21.80
2023-05-04T17:13:38.693Z,21.70
2023-05-04T17:16:10.707Z,21.70
2023-05-04T17:18:41.510Z,21.50
2023-05-04T17:21:12.122Z,21.50
2023-05-04T17:23:43.262Z,21.30
2023-05-04T17:26:13.948Z,21.10
2023-05-04T17:28:44.656Z,21.00
2023-05-04T17:31:16.589Z,20.90
2023-05-04T17:33:47.360Z,20.80
2023-05-04T17:36:17.963Z,20.80
2023-05-04T17:38:48.652Z,20.80
2023-05-04T17:41:19.508Z,20.80
2023-05-04T17:43:50.366Z,20.70
2023-05-04T17:46:21.693Z,20.50
2023-05-04T17:48:53.398Z,20.40
2023-05-04T17:51:24.208Z,20.10
2023-05-04T17:53:54.936Z,20.10
2023-05-04T17:56:25.887Z,20.30
2023-05-04T17:58:56.483Z,20.20
2023-05-04T18:01:27.173Z,20.30
2023-05-04T18:03:58.080Z,20.20
2023-05-04T18:06:28.973Z,20.10
2023-05-04T18:08:59.867Z,20.00
2023-05-04T18:11:30.718Z,20.00
2023-05-04T18:14:01.586Z,19.90
2023-05-04T18:16:34.397Z,19.80
2023-05-04T18:19:06.482Z,19.80
2023-05-04T18:21:38.587Z,19.70
2023-05-04T18:24:10.286Z,19.50
2023-05-04T18:26:40.939Z,19.30
2023-05-04T18:31:44.296Z,19.20
2023-05-04T18:34:15.028Z,19.10
2023-05-04T18:36:46.915Z,18.90
2023-05-04T18:39:18.066Z,19.00
2023-05-04T18:41:48.781Z,18.90
2023-05-04T18:44:19.548Z,18.80
2023-05-04T18:46:50.266Z,18.70
2023-05-04T18:49:20.890Z,18.60
2023-05-04T18:51:52.621Z,18.30
2023-05-04T18:54:23.438Z,18.30
2023-05-04T18:56:54.105Z,18.30
2023-05-04T18:59:24.726Z,18.30
2023-05-04T19:01:55.677Z,18.20
2023-05-04T19:04:26.375Z,18.10
2023-05-04T19:06:58.368Z,18.00
2023-05-04T19:09:29.038Z,17.90
2023-05-04T19:12:00.605Z,17.70
2023-05-04T19:14:31.848Z,17.50
2023-05-04T19:17:02.658Z,17.50
2023-05-04T19:19:35.386Z,17.50
2023-05-04T19:22:07.742Z,17.40
2023-05-04T19:24:38.646Z,17.40
2023-05-04T19:27:09.685Z,17.40
2023-05-04T19:29:40.544Z,17.30
2023-05-04T19:32:22.978Z,17.30
2023-05-04T19:34:43.736Z,17.20
2023-05-04T19:37:14.366Z,17.20
2023-05-04T19:39:45.013Z,17.20
2023-05-04T19:42:16.193Z,17.00
2023-05-04T19:44:47.008Z,16.90
2023-05-04T19:47:18.227Z,16.90
2023-05-04T19:49:49.492Z,16.90
2023-05-04T19:52:20.212Z,17.00
2023-05-04T19:54:52.415Z,16.80
2023-05-04T19:57:23.492Z,16.90
2023-05-04T19:59:56.026Z,17.10
2023-05-04T20:02:27.108Z,17.10
2023-05-04T20:04:57.998Z,17.10
2023-05-04T20:07:28.717Z,17.10
2023-05-04T20:09:59.352Z,17.10
2023-05-04T20:12:30.176Z,17.20
2023-05-04T20:15:00.924Z,17.10
2023-05-04T20:17:31.609Z,16.90
2023-05-04T20:20:04.288Z,16.80
2023-05-04T20:22:35.228Z,16.80
2023-05-04T20:25:06.748Z,16.90
2023-05-04T20:27:38.532Z,16.80
2023-05-04T20:30:11.439Z,16.70
2023-05-04T20:32:44.248Z,16.60
2023-05-04T20:35:15.279Z,16.80
2023-05-04T20:37:45.860Z,16.90
2023-05-04T20:40:17.893Z,16.90
2023-05-04T20:42:48.738Z,16.70
2023-05-04T20:45:19.395Z,16.60
2023-05-04T20:47:50.166Z,16.50
2023-05-04T20:50:21.082Z,16.50
2023-05-04T20:52:51.809Z,16.40
2023-05-04T20:55:22.594Z,16.20
2023-05-04T20:57:53.195Z,16.40
2023-05-04T21:00:24.943Z,16.20
2023-05-04T21:02:55.830Z,16.20
2023-05-04T21:05:26.785Z,16.20
2023-05-04T21:07:57.382Z,16.40
2023-05-04T21:10:27.953Z,16.30
2023-05-04T21:12:58.798Z,16.40
2023-05-04T21:15:29.584Z,16.40
2023-05-04T21:18:00.725Z,16.20
2023-05-04T21:20:31.442Z,16.10
2023-05-04T21:23:02.204Z,16.10
2023-05-04T21:25:33.053Z,16.10
2023-05-04T21:28:03.698Z,16.10
2023-05-04T21:30:34.386Z,16.00
2023-05-04T21:33:05.260Z,16.00
2023-05-04T21:35:36.010Z,16.00
2023-05-04T21:38:06.608Z,15.90
2023-05-04T21:40:37.217Z,15.90
2023-05-04T21:43:07.972Z,15.90
2023-05-04T21:45:38.572Z,15.90
2023-05-04T21:48:09.557Z,15.80
2023-05-04T21:50:40.295Z,15.70
2023-05-04T21:53:11.419Z,15.70
2023-05-04T21:55:42.024Z,15.70
2023-05-04T21:58:12.585Z,15.70
2023-05-04T22:00:44.904Z,15.60
2023-05-04T22:03:15.694Z,15.60
2023-05-04T22:05:54.219Z,15.50
2023-05-04T22:08:25.309Z,15.40
2023-05-04T22:10:57.793Z,15.40
2023-05-04T22:13:28.540Z,15.40
2023-05-04T22:15:59.293Z,15.20
2023-05-04T22:18:30.025Z,15.30
2023-05-04T22:21:00.697Z,15.20
2023-05-04T22:23:31.392Z,15.20
2023-05-04T22:26:02.154Z,15.10
2023-05-04T22:28:32.723Z,15.20
2023-05-04T22:31:03.452Z,15.10
2023-05-04T22:33:34.172Z,15.00
2023-05-04T22:36:05.105Z,15.00
2023-05-04T22:38:35.734Z,14.90
2023-05-04T22:41:06.917Z,14.90
2023-05-04T22:43:37.584Z,14.80
2023-05-04T22:46:08.244Z,14.70
2023-05-04T22:48:39.006Z,14.80
2023-05-04T22:51:09.658Z,14.80
2023-05-04T22:53:40.230Z,14.80
2023-05-04T22:56:11.058Z,14.80
2023-05-04T22:58:42.165Z,14.90
2023-05-04T23:01:13.370Z,14.70
2023-05-04T23:03:45.180Z,14.70
2023-05-04T23:06:15.983Z,14.70
2023-05-04T23:08:46.645Z,14.80
2023-05-04T23:11:22.135Z,14.80
2023-05-04T23:13:52.858Z,14.90
2023-05-04T23:16:23.524Z,14.80
2023-05-04T23:18:54.267Z,14.80
2023-05-04T23:21:25.067Z,14.80
2023-05-04T23:23:55.763Z,14.80
2023-05-04T23:26:26.579Z,14.80
2023-05-04T23:28:57.267Z,14.80
2023-05-04T23:31:28.945Z,14.80
2023-05-04T23:33:59.567Z,14.80
2023-05-04T23:36:30.172Z,14.80
2023-05-04T23:39:00.818Z,14.80
2023-05-04T23:41:31.556Z,14.70
2023-05-04T23:44:02.365Z,14.80
2023-05-04T23:46:32.920Z,14.80
2023-05-04T23:49:03.897Z,14.70
2023-05-04T23:51:34.580Z,14.70
2023-05-04T23:54:05.410Z,14.60
2023-05-04T23:56:36.052Z,14.60
2023-05-04T23:59:07.097Z,14.50
